sensor_id;sensor_type;location;lat;lon;timestamp;P1;durP1;ratioP1;P2;durP2;ratioP2
7657;SDS011;8462;53.156;8.220;2023-01-29T00:01:13;14.47;;;7.97;;
7657;SDS011;8462;53.156;8.220;2023-01-29T00:03:40;15.43;;;7.00;;
7657;SDS011;8462;53.156;8.220;2023-01-29T00:06:07;16.90;;;8.73;;
7657;SDS011;8462;53.156;8.220;2023-01-29T00:08:37;14.33;;;7.10;;
7657;SDS011;8462;53.156;8.220;2023-01-29T00:11:05;18.83;;;8.20;;
7657;SDS011;8462;53.156;8.220;2023-01-29T00:13:33;12.93;;;7.93;;
7657;SDS011;8462;53.156;8.220;2023-01-29T00:16:00;14.07;;;7.83;;
7657;SDS011;8462;53.156;8.220;2023-01-29T00:18:28;12.67;;;7.17;;
7657;SDS011;8462;53.156;8.220;2023-01-29T00:20:55;13.90;;;8.03;;
7657;SDS011;8462;53.156;8.220;2023-01-29T00:23:22;15.83;;;9.07;;
7657;SDS011;8462;53.156;8.220;2023-01-29T00:25:50;12.10;;;8.30;;
7657;SDS011;8462;53.156;8.220;2023-01-29T00:28:17;12.80;;;7.20;;
7657;SDS011;8462;53.156;8.220;2023-01-29T00:30:44;12.13;;;7.90;;
7657;SDS011;8462;53.156;8.220;2023-01-29T00:33:11;12.50;;;7.40;;
7657;SDS011;8462;53.156;8.220;2023-01-29T00:35:38;19.13;;;8.67;;
7657;SDS011;8462;53.156;8.220;2023-01-29T00:38:06;15.90;;;7.90;;
7657;SDS011;8462;53.156;8.220;2023-01-29T00:40:35;13.40;;;7.53;;
7657;SDS011;8462;53.156;8.220;2023-01-29T00:43:18;15.10;;;7.80;;
7657;SDS011;8462;53.156;8.220;2023-01-29T00:46:02;14.23;;;8.07;;
7657;SDS011;8462;53.156;8.220;2023-01-29T00:48:31;14.90;;;7.87;;
7657;SDS011;8462;53.156;8.220;2023-01-29T00:50:58;13.40;;;7.33;;
7657;SDS011;8462;53.156;8.220;2023-01-29T00:53:25;11.77;;;7.50;;
7657;SDS011;8462;53.156;8.220;2023-01-29T00:55:52;12.30;;;7.43;;
7657;SDS011;8462;53.156;8.220;2023-01-29T00:58:20;13.23;;;7.70;;
7657;SDS011;8462;53.156;8.220;2023-01-29T01:00:53;11.20;;;7.97;;
7657;SDS011;8462;53.156;8.220;2023-01-29T01:03:20;13.03;;;7.67;;
7657;SDS011;8462;53.156;8.220;2023-01-29T01:05:46;13.40;;;8.00;;
7657;SDS011;8462;53.156;8.220;2023-01-29T01:08:13;17.10;;;8.97;;
7657;SDS011;8462;53.156;8.220;2023-01-29T01:10:59;15.00;;;7.60;;
7657;SDS011;8462;53.156;8.220;2023-01-29T01:13:29;11.33;;;7.27;;
7657;SDS011;8462;53.156;8.220;2023-01-29T01:15:57;15.07;;;8.03;;
7657;SDS011;8462;53.156;8.220;2023-01-29T01:18:24;14.03;;;7.83;;
7657;SDS011;8462;53.156;8.220;2023-01-29T01:20:55;18.40;;;8.00;;
7657;SDS011;8462;53.156;8.220;2023-01-29T01:23:23;14.27;;;7.90;;
7657;SDS011;8462;53.156;8.220;2023-01-29T01:25:51;11.57;;;7.97;;
7657;SDS011;8462;53.156;8.220;2023-01-29T01:28:18;14.37;;;7.13;;
7657;SDS011;8462;53.156;8.220;2023-01-29T01:30:46;12.40;;;7.30;;
7657;SDS011;8462;53.156;8.220;2023-01-29T01:33:13;14.23;;;8.33;;
7657;SDS011;8462;53.156;8.220;2023-01-29T01:35:40;15.20;;;8.40;;
7657;SDS011;8462;53.156;8.220;2023-01-29T01:38:07;13.67;;;8.30;;
7657;SDS011;8462;53.156;8.220;2023-01-29T01:40:34;15.80;;;7.73;;
7657;SDS011;8462;53.156;8.220;2023-01-29T01:43:01;13.27;;;7.53;;
7657;SDS011;8462;53.156;8.220;2023-01-29T01:45:32;12.30;;;7.33;;
7657;SDS011;8462;53.156;8.220;2023-01-29T01:48:02;13.80;;;7.63;;
7657;SDS011;8462;53.156;8.220;2023-01-29T01:50:33;13.10;;;7.60;;
7657;SDS011;8462;53.156;8.220;2023-01-29T01:53:04;16.63;;;8.43;;
7657;SDS011;8462;53.156;8.220;2023-01-29T01:55:33;16.43;;;8.10;;
7657;SDS011;8462;53.156;8.220;2023-01-29T01:58:04;11.33;;;7.67;;
7657;SDS011;8462;53.156;8.220;2023-01-29T02:00:36;14.33;;;7.77;;
7657;SDS011;8462;53.156;8.220;2023-01-29T02:03:06;15.10;;;8.27;;
7657;SDS011;8462;53.156;8.220;2023-01-29T02:05:52;14.83;;;7.60;;
7657;SDS011;8462;53.156;8.220;2023-01-29T02:08:40;13.93;;;8.63;;
7657;SDS011;8462;53.156;8.220;2023-01-29T02:11:30;14.20;;;8.23;;
7657;SDS011;8462;53.156;8.220;2023-01-29T02:13:57;14.10;;;7.50;;
7657;SDS011;8462;53.156;8.220;2023-01-29T02:16:25;14.03;;;7.97;;
7657;SDS011;8462;53.156;8.220;2023-01-29T02:18:55;14.40;;;8.50;;
7657;SDS011;8462;53.156;8.220;2023-01-29T02:21:48;13.80;;;7.93;;
7657;SDS011;8462;53.156;8.220;2023-01-29T02:24:39;13.50;;;7.90;;
7657;SDS011;8462;53.156;8.220;2023-01-29T02:27:26;15.77;;;8.37;;
7657;SDS011;8462;53.156;8.220;2023-01-29T02:30:07;15.93;;;8.37;;
7657;SDS011;8462;53.156;8.220;2023-01-29T02:32:38;14.20;;;8.00;;
7657;SDS011;8462;53.156;8.220;2023-01-29T02:35:24;14.80;;;8.33;;
7657;SDS011;8462;53.156;8.220;2023-01-29T02:37:58;14.93;;;8.80;;
7657;SDS011;8462;53.156;8.220;2023-01-29T02:40:35;13.57;;;7.93;;
7657;SDS011;8462;53.156;8.220;2023-01-29T02:43:11;16.30;;;9.37;;
7657;SDS011;8462;53.156;8.220;2023-01-29T02:45:45;14.50;;;9.10;;
7657;SDS011;8462;53.156;8.220;2023-01-29T02:48:16;16.70;;;8.73;;
7657;SDS011;8462;53.156;8.220;2023-01-29T02:50:47;14.43;;;8.77;;
7657;SDS011;8462;53.156;8.220;2023-01-29T02:53:21;12.70;;;7.87;;
7657;SDS011;8462;53.156;8.220;2023-01-29T02:55:55;13.20;;;8.87;;
7657;SDS011;8462;53.156;8.220;2023-01-29T02:58:28;14.80;;;8.30;;
7657;SDS011;8462;53.156;8.220;2023-01-29T03:01:00;15.33;;;8.70;;
7657;SDS011;8462;53.156;8.220;2023-01-29T03:03:33;17.83;;;9.03;;
7657;SDS011;8462;53.156;8.220;2023-01-29T03:06:05;15.47;;;9.33;;
7657;SDS011;8462;53.156;8.220;2023-01-29T03:08:45;15.17;;;8.70;;
7657;SDS011;8462;53.156;8.220;2023-01-29T03:11:16;15.53;;;9.70;;
7657;SDS011;8462;53.156;8.220;2023-01-29T03:13:44;16.43;;;9.60;;
7657;SDS011;8462;53.156;8.220;2023-01-29T03:16:17;15.23;;;9.63;;
7657;SDS011;8462;53.156;8.220;2023-01-29T03:18:49;15.23;;;9.20;;
7657;SDS011;8462;53.156;8.220;2023-01-29T03:21:21;15.47;;;9.17;;
7657;SDS011;8462;53.156;8.220;2023-01-29T03:24:10;18.13;;;9.83;;
7657;SDS011;8462;53.156;8.220;2023-01-29T03:27:00;17.43;;;10.03;;
7657;SDS011;8462;53.156;8.220;2023-01-29T03:29:48;15.20;;;9.60;;
7657;SDS011;8462;53.156;8.220;2023-01-29T03:32:49;16.90;;;10.00;;
7657;SDS011;8462;53.156;8.220;2023-01-29T03:35:17;16.90;;;9.77;;
7657;SDS011;8462;53.156;8.220;2023-01-29T03:38:02;18.50;;;10.23;;
7657;SDS011;8462;53.156;8.220;2023-01-29T03:40:32;17.60;;;9.80;;
7657;SDS011;8462;53.156;8.220;2023-01-29T03:43:06;18.90;;;10.97;;
7657;SDS011;8462;53.156;8.220;2023-01-29T03:45:38;19.57;;;10.87;;
7657;SDS011;8462;53.156;8.220;2023-01-29T03:48:15;16.20;;;9.70;;
7657;SDS011;8462;53.156;8.220;2023-01-29T03:50:55;19.73;;;10.90;;
7657;SDS011;8462;53.156;8.220;2023-01-29T03:53:28;16.77;;;10.23;;
7657;SDS011;8462;53.156;8.220;2023-01-29T03:56:03;17.53;;;10.40;;
7657;SDS011;8462;53.156;8.220;2023-01-29T03:58:34;18.47;;;10.70;;
7657;SDS011;8462;53.156;8.220;2023-01-29T04:01:05;16.63;;;10.10;;
7657;SDS011;8462;53.156;8.220;2023-01-29T04:03:39;17.93;;;10.77;;
7657;SDS011;8462;53.156;8.220;2023-01-29T04:06:13;17.50;;;11.57;;
7657;SDS011;8462;53.156;8.220;2023-01-29T04:08:54;16.60;;;9.93;;
7657;SDS011;8462;53.156;8.220;2023-01-29T04:11:24;15.80;;;10.50;;
7657;SDS011;8462;53.156;8.220;2023-01-29T04:13:55;17.53;;;10.67;;
7657;SDS011;8462;53.156;8.220;2023-01-29T04:16:24;15.30;;;9.87;;
7657;SDS011;8462;53.156;8.220;2023-01-29T04:19:09;18.27;;;10.73;;
7657;SDS011;8462;53.156;8.220;2023-01-29T04:21:40;16.50;;;10.93;;
7657;SDS011;8462;53.156;8.220;2023-01-29T04:24:07;17.97;;;10.77;;
7657;SDS011;8462;53.156;8.220;2023-01-29T04:26:41;19.93;;;11.20;;
7657;SDS011;8462;53.156;8.220;2023-01-29T04:29:31;19.53;;;12.23;;
7657;SDS011;8462;53.156;8.220;2023-01-29T04:32:10;19.77;;;11.40;;
7657;SDS011;8462;53.156;8.220;2023-01-29T04:34:48;19.67;;;11.77;;
7657;SDS011;8462;53.156;8.220;2023-01-29T04:37:28;18.03;;;11.63;;
7657;SDS011;8462;53.156;8.220;2023-01-29T04:40:03;18.50;;;11.53;;
7657;SDS011;8462;53.156;8.220;2023-01-29T04:42:40;18.37;;;11.37;;
7657;SDS011;8462;53.156;8.220;2023-01-29T04:45:15;21.70;;;11.17;;
7657;SDS011;8462;53.156;8.220;2023-01-29T04:47:49;20.60;;;11.47;;
7657;SDS011;8462;53.156;8.220;2023-01-29T04:50:27;20.20;;;12.57;;
7657;SDS011;8462;53.156;8.220;2023-01-29T04:53:01;19.60;;;11.77;;
7657;SDS011;8462;53.156;8.220;2023-01-29T04:55:34;18.57;;;12.23;;
7657;SDS011;8462;53.156;8.220;2023-01-29T04:58:06;20.03;;;11.40;;
7657;SDS011;8462;53.156;8.220;2023-01-29T05:00:38;21.00;;;12.03;;
7657;SDS011;8462;53.156;8.220;2023-01-29T05:03:07;21.33;;;11.30;;
7657;SDS011;8462;53.156;8.220;2023-01-29T05:05:39;19.83;;;11.33;;
7657;SDS011;8462;53.156;8.220;2023-01-29T05:08:09;20.87;;;12.77;;
7657;SDS011;8462;53.156;8.220;2023-01-29T05:10:39;20.33;;;11.53;;
7657;SDS011;8462;53.156;8.220;2023-01-29T05:13:07;21.53;;;12.90;;
7657;SDS011;8462;53.156;8.220;2023-01-29T05:15:37;21.17;;;12.17;;
7657;SDS011;8462;53.156;8.220;2023-01-29T05:18:05;23.13;;;12.23;;
7657;SDS011;8462;53.156;8.220;2023-01-29T05:20:34;23.83;;;13.37;;
7657;SDS011;8462;53.156;8.220;2023-01-29T05:23:05;21.60;;;13.20;;
7657;SDS011;8462;53.156;8.220;2023-01-29T05:25:35;22.30;;;12.47;;
7657;SDS011;8462;53.156;8.220;2023-01-29T05:28:02;23.20;;;12.67;;
7657;SDS011;8462;53.156;8.220;2023-01-29T05:30:28;21.37;;;12.90;;
7657;SDS011;8462;53.156;8.220;2023-01-29T05:32:55;21.80;;;13.43;;
7657;SDS011;8462;53.156;8.220;2023-01-29T05:35:22;22.23;;;13.20;;
7657;SDS011;8462;53.156;8.220;2023-01-29T05:37:48;23.23;;;13.17;;
7657;SDS011;8462;53.156;8.220;2023-01-29T05:40:17;23.67;;;13.57;;
7657;SDS011;8462;53.156;8.220;2023-01-29T05:42:44;24.90;;;13.53;;
7657;SDS011;8462;53.156;8.220;2023-01-29T05:45:11;21.67;;;13.13;;
7657;SDS011;8462;53.156;8.220;2023-01-29T05:47:37;21.37;;;12.70;;
7657;SDS011;8462;53.156;8.220;2023-01-29T05:50:05;25.23;;;13.03;;
7657;SDS011;8462;53.156;8.220;2023-01-29T05:52:33;26.03;;;14.40;;
7657;SDS011;8462;53.156;8.220;2023-01-29T05:54:59;27.27;;;14.20;;
7657;SDS011;8462;53.156;8.220;2023-01-29T05:57:28;24.47;;;13.83;;
7657;SDS011;8462;53.156;8.220;2023-01-29T05:59:54;25.37;;;14.17;;
7657;SDS011;8462;53.156;8.220;2023-01-29T06:02:21;24.33;;;14.73;;
7657;SDS011;8462;53.156;8.220;2023-01-29T06:04:49;23.97;;;13.77;;
7657;SDS011;8462;53.156;8.220;2023-01-29T06:07:17;24.23;;;14.17;;
7657;SDS011;8462;53.156;8.220;2023-01-29T06:09:43;23.90;;;14.57;;
7657;SDS011;8462;53.156;8.220;2023-01-29T06:12:10;24.37;;;14.40;;
7657;SDS011;8462;53.156;8.220;2023-01-29T06:14:39;29.10;;;15.47;;
7657;SDS011;8462;53.156;8.220;2023-01-29T06:17:05;25.97;;;15.07;;
7657;SDS011;8462;53.156;8.220;2023-01-29T06:19:32;22.83;;;14.33;;
7657;SDS011;8462;53.156;8.220;2023-01-29T06:21:59;26.87;;;14.70;;
7657;SDS011;8462;53.156;8.220;2023-01-29T06:24:26;22.53;;;14.20;;
7657;SDS011;8462;53.156;8.220;2023-01-29T06:26:53;23.83;;;15.63;;
7657;SDS011;8462;53.156;8.220;2023-01-29T06:29:20;26.13;;;14.53;;
7657;SDS011;8462;53.156;8.220;2023-01-29T06:31:48;28.40;;;15.00;;
7657;SDS011;8462;53.156;8.220;2023-01-29T06:34:15;26.20;;;15.00;;
7657;SDS011;8462;53.156;8.220;2023-01-29T06:36:42;28.20;;;16.27;;
7657;SDS011;8462;53.156;8.220;2023-01-29T06:39:09;29.53;;;16.80;;
7657;SDS011;8462;53.156;8.220;2023-01-29T06:41:36;26.00;;;15.40;;
7657;SDS011;8462;53.156;8.220;2023-01-29T06:44:03;31.33;;;16.53;;
7657;SDS011;8462;53.156;8.220;2023-01-29T06:46:30;26.00;;;15.37;;
7657;SDS011;8462;53.156;8.220;2023-01-29T06:48:59;28.30;;;16.80;;
7657;SDS011;8462;53.156;8.220;2023-01-29T06:51:25;28.57;;;17.47;;
7657;SDS011;8462;53.156;8.220;2023-01-29T06:53:53;27.70;;;16.37;;
7657;SDS011;8462;53.156;8.220;2023-01-29T06:56:20;27.73;;;15.53;;
7657;SDS011;8462;53.156;8.220;2023-01-29T06:58:47;26.90;;;15.60;;
7657;SDS011;8462;53.156;8.220;2023-01-29T07:01:14;25.83;;;14.47;;
7657;SDS011;8462;53.156;8.220;2023-01-29T07:03:42;26.60;;;15.93;;
7657;SDS011;8462;53.156;8.220;2023-01-29T07:06:11;24.57;;;14.80;;
7657;SDS011;8462;53.156;8.220;2023-01-29T07:08:38;29.33;;;16.33;;
7657;SDS011;8462;53.156;8.220;2023-01-29T07:11:05;29.63;;;16.90;;
7657;SDS011;8462;53.156;8.220;2023-01-29T07:13:33;29.57;;;17.73;;
7657;SDS011;8462;53.156;8.220;2023-01-29T07:16:00;27.10;;;15.90;;
7657;SDS011;8462;53.156;8.220;2023-01-29T07:18:28;31.13;;;17.10;;
7657;SDS011;8462;53.156;8.220;2023-01-29T07:20:56;28.67;;;16.27;;
7657;SDS011;8462;53.156;8.220;2023-01-29T07:23:24;28.03;;;16.27;;
7657;SDS011;8462;53.156;8.220;2023-01-29T07:25:51;27.00;;;15.87;;
7657;SDS011;8462;53.156;8.220;2023-01-29T07:28:18;35.93;;;15.93;;
7657;SDS011;8462;53.156;8.220;2023-01-29T07:30:45;26.60;;;16.23;;
7657;SDS011;8462;53.156;8.220;2023-01-29T07:33:12;26.77;;;15.87;;
7657;SDS011;8462;53.156;8.220;2023-01-29T07:35:40;26.07;;;15.63;;
7657;SDS011;8462;53.156;8.220;2023-01-29T07:38:08;29.90;;;16.57;;
7657;SDS011;8462;53.156;8.220;2023-01-29T07:40:37;26.63;;;16.10;;
7657;SDS011;8462;53.156;8.220;2023-01-29T07:43:05;32.27;;;17.30;;
7657;SDS011;8462;53.156;8.220;2023-01-29T07:45:33;26.33;;;16.57;;
7657;SDS011;8462;53.156;8.220;2023-01-29T07:48:01;28.43;;;16.13;;
7657;SDS011;8462;53.156;8.220;2023-01-29T07:50:30;27.77;;;15.70;;
7657;SDS011;8462;53.156;8.220;2023-01-29T07:52:57;28.63;;;15.43;;
7657;SDS011;8462;53.156;8.220;2023-01-29T07:55:24;29.67;;;16.67;;
7657;SDS011;8462;53.156;8.220;2023-01-29T07:57:55;28.77;;;16.97;;
7657;SDS011;8462;53.156;8.220;2023-01-29T08:00:22;25.87;;;15.10;;
7657;SDS011;8462;53.156;8.220;2023-01-29T08:02:49;31.77;;;16.93;;
7657;SDS011;8462;53.156;8.220;2023-01-29T08:05:16;28.97;;;17.10;;
7657;SDS011;8462;53.156;8.220;2023-01-29T08:07:44;27.87;;;16.93;;
7657;SDS011;8462;53.156;8.220;2023-01-29T08:10:10;26.43;;;16.30;;
7657;SDS011;8462;53.156;8.220;2023-01-29T08:12:37;31.10;;;17.27;;
7657;SDS011;8462;53.156;8.220;2023-01-29T08:15:06;28.43;;;16.80;;
7657;SDS011;8462;53.156;8.220;2023-01-29T08:17:34;28.50;;;16.50;;
7657;SDS011;8462;53.156;8.220;2023-01-29T08:20:03;29.90;;;15.43;;
7657;SDS011;8462;53.156;8.220;2023-01-29T08:22:32;28.47;;;15.83;;
7657;SDS011;8462;53.156;8.220;2023-01-29T08:24:59;27.37;;;16.07;;
7657;SDS011;8462;53.156;8.220;2023-01-29T08:27:25;26.60;;;16.00;;
7657;SDS011;8462;53.156;8.220;2023-01-29T08:29:52;25.70;;;14.83;;
7657;SDS011;8462;53.156;8.220;2023-01-29T08:32:20;25.37;;;15.60;;
7657;SDS011;8462;53.156;8.220;2023-01-29T08:34:47;22.40;;;14.70;;
7657;SDS011;8462;53.156;8.220;2023-01-29T08:37:14;22.97;;;14.47;;
7657;SDS011;8462;53.156;8.220;2023-01-29T08:39:41;26.67;;;15.67;;
7657;SDS011;8462;53.156;8.220;2023-01-29T08:42:08;24.70;;;14.43;;
7657;SDS011;8462;53.156;8.220;2023-01-29T08:44:34;23.93;;;14.83;;
7657;SDS011;8462;53.156;8.220;2023-01-29T08:47:01;22.37;;;14.27;;
7657;SDS011;8462;53.156;8.220;2023-01-29T08:49:30;25.27;;;14.73;;
7657;SDS011;8462;53.156;8.220;2023-01-29T08:51:57;26.03;;;13.53;;
7657;SDS011;8462;53.156;8.220;2023-01-29T08:54:24;24.87;;;14.50;;
7657;SDS011;8462;53.156;8.220;2023-01-29T08:56:51;22.47;;;13.70;;
7657;SDS011;8462;53.156;8.220;2023-01-29T08:59:18;20.73;;;13.10;;
7657;SDS011;8462;53.156;8.220;2023-01-29T09:01:46;22.07;;;13.37;;
7657;SDS011;8462;53.156;8.220;2023-01-29T09:04:14;24.97;;;13.37;;
7657;SDS011;8462;53.156;8.220;2023-01-29T09:06:42;27.67;;;14.73;;
7657;SDS011;8462;53.156;8.220;2023-01-29T09:09:09;22.33;;;12.53;;
7657;SDS011;8462;53.156;8.220;2023-01-29T09:11:37;20.33;;;13.60;;
7657;SDS011;8462;53.156;8.220;2023-01-29T09:14:04;23.53;;;13.33;;
7657;SDS011;8462;53.156;8.220;2023-01-29T09:16:31;21.27;;;13.33;;
7657;SDS011;8462;53.156;8.220;2023-01-29T09:18:58;23.17;;;13.80;;
7657;SDS011;8462;53.156;8.220;2023-01-29T09:21:25;21.47;;;13.27;;
7657;SDS011;8462;53.156;8.220;2023-01-29T09:23:53;20.13;;;13.33;;
7657;SDS011;8462;53.156;8.220;2023-01-29T09:26:20;20.73;;;12.87;;
7657;SDS011;8462;53.156;8.220;2023-01-29T09:28:47;20.87;;;12.57;;
7657;SDS011;8462;53.156;8.220;2023-01-29T09:31:14;20.77;;;13.30;;
7657;SDS011;8462;53.156;8.220;2023-01-29T09:33:41;19.30;;;12.30;;
7657;SDS011;8462;53.156;8.220;2023-01-29T09:36:08;19.03;;;12.43;;
7657;SDS011;8462;53.156;8.220;2023-01-29T09:38:35;21.73;;;13.50;;
7657;SDS011;8462;53.156;8.220;2023-01-29T09:41:05;19.43;;;12.83;;
7657;SDS011;8462;53.156;8.220;2023-01-29T09:43:42;20.60;;;12.43;;
7657;SDS011;8462;53.156;8.220;2023-01-29T09:46:14;18.23;;;12.10;;
7657;SDS011;8462;53.156;8.220;2023-01-29T09:48:46;19.53;;;13.17;;
7657;SDS011;8462;53.156;8.220;2023-01-29T09:51:20;21.83;;;13.67;;
7657;SDS011;8462;53.156;8.220;2023-01-29T09:53:53;20.83;;;12.87;;
7657;SDS011;8462;53.156;8.220;2023-01-29T09:56:25;19.07;;;12.50;;
7657;SDS011;8462;53.156;8.220;2023-01-29T09:58:53;19.20;;;12.73;;
7657;SDS011;8462;53.156;8.220;2023-01-29T10:01:25;24.10;;;13.37;;
7657;SDS011;8462;53.156;8.220;2023-01-29T10:04:01;17.63;;;11.20;;
7657;SDS011;8462;53.156;8.220;2023-01-29T10:06:50;20.87;;;12.83;;
7657;SDS011;8462;53.156;8.220;2023-01-29T10:09:40;18.70;;;12.53;;
7657;SDS011;8462;53.156;8.220;2023-01-29T10:12:25;20.20;;;12.57;;
7657;SDS011;8462;53.156;8.220;2023-01-29T10:15:12;17.83;;;12.40;;
7657;SDS011;8462;53.156;8.220;2023-01-29T10:17:56;18.50;;;12.03;;
7657;SDS011;8462;53.156;8.220;2023-01-29T10:20:41;20.37;;;13.50;;
7657;SDS011;8462;53.156;8.220;2023-01-29T10:23:20;19.83;;;13.63;;
7657;SDS011;8462;53.156;8.220;2023-01-29T10:25:50;21.27;;;12.97;;
7657;SDS011;8462;53.156;8.220;2023-01-29T10:28:20;20.67;;;13.13;;
7657;SDS011;8462;53.156;8.220;2023-01-29T10:30:53;20.53;;;13.30;;
7657;SDS011;8462;53.156;8.220;2023-01-29T10:33:26;22.10;;;14.37;;
7657;SDS011;8462;53.156;8.220;2023-01-29T10:35:59;19.43;;;13.47;;
7657;SDS011;8462;53.156;8.220;2023-01-29T10:38:30;21.67;;;14.03;;
7657;SDS011;8462;53.156;8.220;2023-01-29T10:41:09;21.60;;;13.87;;
7657;SDS011;8462;53.156;8.220;2023-01-29T10:43:49;19.50;;;12.27;;
7657;SDS011;8462;53.156;8.220;2023-01-29T10:46:26;21.67;;;13.07;;
7657;SDS011;8462;53.156;8.220;2023-01-29T10:49:07;23.97;;;12.77;;
7657;SDS011;8462;53.156;8.220;2023-01-29T10:51:50;17.93;;;11.57;;
7657;SDS011;8462;53.156;8.220;2023-01-29T10:57:26;23.53;;;13.27;;
7657;SDS011;8462;53.156;8.220;2023-01-29T11:00:09;21.10;;;13.07;;
7657;SDS011;8462;53.156;8.220;2023-01-29T11:02:43;17.80;;;11.93;;
7657;SDS011;8462;53.156;8.220;2023-01-29T11:05:15;24.00;;;13.80;;
7657;SDS011;8462;53.156;8.220;2023-01-29T11:07:59;22.30;;;13.13;;
7657;SDS011;8462;53.156;8.220;2023-01-29T11:10:32;18.80;;;12.13;;
7657;SDS011;8462;53.156;8.220;2023-01-29T11:13:03;21.80;;;12.83;;
7657;SDS011;8462;53.156;8.220;2023-01-29T11:15:32;22.77;;;13.30;;
7657;SDS011;8462;53.156;8.220;2023-01-29T11:18:00;19.80;;;12.63;;
7657;SDS011;8462;53.156;8.220;2023-01-29T11:20:28;20.13;;;13.27;;
7657;SDS011;8462;53.156;8.220;2023-01-29T11:22:56;18.97;;;12.67;;
7657;SDS011;8462;53.156;8.220;2023-01-29T11:25:24;19.60;;;13.30;;
7657;SDS011;8462;53.156;8.220;2023-01-29T11:27:53;21.53;;;13.43;;
7657;SDS011;8462;53.156;8.220;2023-01-29T11:30:22;24.03;;;13.80;;
7657;SDS011;8462;53.156;8.220;2023-01-29T11:32:55;20.37;;;13.87;;
7657;SDS011;8462;53.156;8.220;2023-01-29T11:35:30;20.97;;;13.37;;
7657;SDS011;8462;53.156;8.220;2023-01-29T11:38:04;22.30;;;13.53;;
7657;SDS011;8462;53.156;8.220;2023-01-29T11:40:35;20.27;;;13.03;;
7657;SDS011;8462;53.156;8.220;2023-01-29T11:43:27;25.30;;;14.17;;
7657;SDS011;8462;53.156;8.220;2023-01-29T11:45:55;20.53;;;12.77;;
7657;SDS011;8462;53.156;8.220;2023-01-29T11:48:38;19.37;;;12.67;;
7657;SDS011;8462;53.156;8.220;2023-01-29T11:51:07;25.03;;;15.07;;
7657;SDS011;8462;53.156;8.220;2023-01-29T11:53:37;23.07;;;14.23;;
7657;SDS011;8462;53.156;8.220;2023-01-29T11:56:15;21.40;;;13.90;;
7657;SDS011;8462;53.156;8.220;2023-01-29T11:58:45;22.03;;;14.40;;
7657;SDS011;8462;53.156;8.220;2023-01-29T12:01:14;22.80;;;14.70;;
7657;SDS011;8462;53.156;8.220;2023-01-29T12:03:46;21.73;;;13.40;;
7657;SDS011;8462;53.156;8.220;2023-01-29T12:06:17;23.47;;;13.77;;
7657;SDS011;8462;53.156;8.220;2023-01-29T12:08:51;21.40;;;13.63;;
7657;SDS011;8462;53.156;8.220;2023-01-29T12:11:25;22.97;;;14.87;;
7657;SDS011;8462;53.156;8.220;2023-01-29T12:13:55;21.17;;;13.70;;
7657;SDS011;8462;53.156;8.220;2023-01-29T12:16:24;20.83;;;13.63;;
7657;SDS011;8462;53.156;8.220;2023-01-29T12:18:57;23.90;;;14.50;;
7657;SDS011;8462;53.156;8.220;2023-01-29T12:21:31;22.07;;;14.03;;
7657;SDS011;8462;53.156;8.220;2023-01-29T12:24:02;23.10;;;14.63;;
7657;SDS011;8462;53.156;8.220;2023-01-29T12:26:34;23.90;;;14.33;;
7657;SDS011;8462;53.156;8.220;2023-01-29T12:29:07;22.67;;;14.33;;
7657;SDS011;8462;53.156;8.220;2023-01-29T12:31:44;27.73;;;14.80;;
7657;SDS011;8462;53.156;8.220;2023-01-29T12:34:23;21.53;;;14.83;;
7657;SDS011;8462;53.156;8.220;2023-01-29T12:36:58;23.43;;;14.67;;
7657;SDS011;8462;53.156;8.220;2023-01-29T12:39:30;22.93;;;13.97;;
7657;SDS011;8462;53.156;8.220;2023-01-29T12:41:58;22.03;;;14.10;;
7657;SDS011;8462;53.156;8.220;2023-01-29T12:44:29;24.07;;;15.20;;
7657;SDS011;8462;53.156;8.220;2023-01-29T12:47:01;24.60;;;14.93;;
7657;SDS011;8462;53.156;8.220;2023-01-29T12:49:34;23.27;;;15.00;;
7657;SDS011;8462;53.156;8.220;2023-01-29T12:52:06;26.33;;;14.13;;
7657;SDS011;8462;53.156;8.220;2023-01-29T12:54:38;26.87;;;15.33;;
7657;SDS011;8462;53.156;8.220;2023-01-29T12:57:13;24.17;;;14.53;;
7657;SDS011;8462;53.156;8.220;2023-01-29T12:59:48;28.10;;;14.90;;
7657;SDS011;8462;53.156;8.220;2023-01-29T13:02:28;26.60;;;15.00;;
7657;SDS011;8462;53.156;8.220;2023-01-29T13:05:01;27.67;;;16.10;;
7657;SDS011;8462;53.156;8.220;2023-01-29T13:07:34;23.70;;;14.83;;
7657;SDS011;8462;53.156;8.220;2023-01-29T13:10:06;21.83;;;15.13;;
7657;SDS011;8462;53.156;8.220;2023-01-29T13:12:37;21.27;;;13.83;;
7657;SDS011;8462;53.156;8.220;2023-01-29T13:15:12;24.77;;;14.37;;
7657;SDS011;8462;53.156;8.220;2023-01-29T13:17:46;25.33;;;15.27;;
7657;SDS011;8462;53.156;8.220;2023-01-29T13:20:18;28.27;;;15.83;;
7657;SDS011;8462;53.156;8.220;2023-01-29T13:22:49;26.17;;;16.73;;
7657;SDS011;8462;53.156;8.220;2023-01-29T13:25:19;26.27;;;15.13;;
7657;SDS011;8462;53.156;8.220;2023-01-29T13:27:46;27.17;;;15.93;;
7657;SDS011;8462;53.156;8.220;2023-01-29T13:30:24;24.20;;;14.37;;
7657;SDS011;8462;53.156;8.220;2023-01-29T13:32:53;27.60;;;16.63;;
7657;SDS011;8462;53.156;8.220;2023-01-29T13:35:34;26.73;;;16.13;;
7657;SDS011;8462;53.156;8.220;2023-01-29T13:38:03;32.40;;;16.93;;
7657;SDS011;8462;53.156;8.220;2023-01-29T13:40:30;26.70;;;15.53;;
7657;SDS011;8462;53.156;8.220;2023-01-29T13:42:59;28.30;;;16.90;;
7657;SDS011;8462;53.156;8.220;2023-01-29T13:45:30;25.57;;;14.93;;
7657;SDS011;8462;53.156;8.220;2023-01-29T13:48:09;29.93;;;16.17;;
7657;SDS011;8462;53.156;8.220;2023-01-29T13:50:46;25.20;;;15.73;;
7657;SDS011;8462;53.156;8.220;2023-01-29T13:53:19;28.33;;;15.80;;
7657;SDS011;8462;53.156;8.220;2023-01-29T13:55:48;23.43;;;14.30;;
7657;SDS011;8462;53.156;8.220;2023-01-29T13:58:16;23.90;;;14.77;;
7657;SDS011;8462;53.156;8.220;2023-01-29T14:01:05;25.87;;;16.53;;
7657;SDS011;8462;53.156;8.220;2023-01-29T14:12:39;29.17;;;17.57;;
7657;SDS011;8462;53.156;8.220;2023-01-29T14:15:21;27.80;;;16.50;;
7657;SDS011;8462;53.156;8.220;2023-01-29T14:17:59;24.43;;;14.77;;
7657;SDS011;8462;53.156;8.220;2023-01-29T14:23:43;27.17;;;16.20;;
7657;SDS011;8462;53.156;8.220;2023-01-29T14:26:20;24.30;;;14.57;;
7657;SDS011;8462;53.156;8.220;2023-01-29T14:28:56;25.73;;;16.10;;
7657;SDS011;8462;53.156;8.220;2023-01-29T14:31:27;26.87;;;16.17;;
7657;SDS011;8462;53.156;8.220;2023-01-29T14:34:00;30.43;;;15.83;;
7657;SDS011;8462;53.156;8.220;2023-01-29T14:36:28;26.20;;;15.33;;
7657;SDS011;8462;53.156;8.220;2023-01-29T14:39:04;25.27;;;15.53;;
7657;SDS011;8462;53.156;8.220;2023-01-29T14:41:42;25.10;;;15.97;;
7657;SDS011;8462;53.156;8.220;2023-01-29T14:47:18;25.97;;;15.63;;
7657;SDS011;8462;53.156;8.220;2023-01-29T14:49:53;25.53;;;16.10;;
7657;SDS011;8462;53.156;8.220;2023-01-29T14:52:22;23.77;;;15.17;;
7657;SDS011;8462;53.156;8.220;2023-01-29T14:54:54;27.77;;;16.43;;
7657;SDS011;8462;53.156;8.220;2023-01-29T14:57:26;23.77;;;15.13;;
7657;SDS011;8462;53.156;8.220;2023-01-29T14:59:56;28.83;;;16.77;;
7657;SDS011;8462;53.156;8.220;2023-01-29T15:02:25;24.80;;;16.33;;
7657;SDS011;8462;53.156;8.220;2023-01-29T15:05:00;26.37;;;16.00;;
7657;SDS011;8462;53.156;8.220;2023-01-29T15:07:31;26.20;;;16.40;;
7657;SDS011;8462;53.156;8.220;2023-01-29T15:10:03;28.87;;;16.10;;
7657;SDS011;8462;53.156;8.220;2023-01-29T15:12:41;28.93;;;15.60;;
7657;SDS011;8462;53.156;8.220;2023-01-29T15:15:14;27.47;;;16.37;;
7657;SDS011;8462;53.156;8.220;2023-01-29T15:17:47;27.60;;;16.27;;
7657;SDS011;8462;53.156;8.220;2023-01-29T15:20:32;26.77;;;16.57;;
7657;SDS011;8462;53.156;8.220;2023-01-29T15:23:00;27.50;;;15.90;;
7657;SDS011;8462;53.156;8.220;2023-01-29T15:25:30;26.73;;;15.83;;
7657;SDS011;8462;53.156;8.220;2023-01-29T15:28:01;24.67;;;15.80;;
7657;SDS011;8462;53.156;8.220;2023-01-29T15:30:32;27.50;;;16.20;;
7657;SDS011;8462;53.156;8.220;2023-01-29T15:33:00;26.03;;;15.17;;
7657;SDS011;8462;53.156;8.220;2023-01-29T15:35:29;27.20;;;16.73;;